Česky Dansk Deutsch English Español Suomi Français Magyar Italiano Nederlands norsk Polski Português svenska Türkçe

 

Het Weer

Alghero (Italië)

13:50, 31 juli 2016 (GMT)

NWNNE
WE
SWSSE
Home            
Alghero Capo Caccia Capo Frasca Fonni Olbia / Costa Smeralda Guardiavecchia Figari Capo Bellavista Perdasdefogu Ajaccio Decimomannu Cagliari / Elmas Solenzara Capo S. Lorenzo Capo Carbonara Calvi Bastia M. Calamita Monte Argentario Hyeres Grosseto St-Raphael Civitavecchia

Om een weerknop op uw website of weblog te plaatsen, copieer onderstaande code en plak die in uw pagina. In het eerste vakje staat HTML-code, in het tweede vakje UBB-code.


Add to Google

Details

Wind speed:4 bf, 15 kn, 7.7 m/s, 17.3 miles/h, 27.8 km/h
Wind direction:SSW, 210°
Visibility:Greater than 10000 m, 10 km, 32800 ft, 6.2 miles
Clouds:CAVOC
Temperature:30°C, 86°F
Gefühlte Temperatur:31°C, 88°F
Dew-point:19°C, 66°F
Atmospheric pressure:1014 hPa, 760.6 mmHg, 29.94 inHg, 1.001 atm
Relative humidity:51.8 %
METAR:LIEA 311350Z 21015KT CAVOK 30/19 Q1014

Snelkoppelingen

Actuele weersinformatie van de hele wereld. Voeg locaties toe met het plus (+) symbool. Deze snelkoppelingen kunnen worden toegevoegd aan Google.

Lid van de Technetium groep

website free tracking
StatCounter NetStat W3C Validator

03-10-2022 01:35:38
astro.technetium.be money.technetium.be phote.technetium.be tafeltennistafel.technetium.be www.ligfiets.net